Time;durP1;ratioP1;P1;durP2;ratioP2;P2;SDS_P1;SDS_P2;PMS_P1;PMS_P2;Temp;Humidity;BMP_temperature;BMP_pressure;BME280_temperature;BME280_humidity;BME280_pressure;Samples;Min_cycle;Max_cycle;Signal;HPM_P1;HPM_P2
2022/12/17 13:07:26;;;;;;;55.47;30.27;;;1.10;99.90;;;;;;4892802;29;20131;-72
2022/12/17 13:09:54;;;;;;;60.53;31.77;;;1.10;99.90;;;;;;4895560;29;20048;-72
2022/12/17 13:12:46;;;;;;;62.83;32.72;;;1.00;99.90;;;;;;4862841;29;20045;-73
2022/12/17 13:15:20;;;;;;;58.40;31.60;;;1.00;99.90;;;;;;4860518;29;20052;-71
2022/12/17 13:18:05;;;;;;;63.72;33.13;;;1.00;99.90;;;;;;4874282;29;20049;-72
2022/12/17 13:20:33;;;;;;;57.75;30.80;;;1.00;99.90;;;;;;4889932;29;20440;-72
2022/12/17 13:23:08;;;;;;;49.45;27.20;;;1.00;99.90;;;;;;4893549;29;20107;-72
2022/12/17 13:25:34;;;;;;;56.67;30.27;;;1.00;99.90;;;;;;4861349;29;20044;-72
2022/12/17 13:28:00;;;;;;;53.63;29.15;;;0.90;99.90;;;;;;4876318;29;20075;-72
2022/12/17 13:30:36;;;;;;;57.47;30.98;;;0.90;99.90;;;;;;4864727;29;20140;-72
2022/12/17 13:33:32;;;;;;;57.40;31.23;;;0.90;99.90;;;;;;4892854;29;20052;-73
2022/12/17 13:36:41;;;;;;;52.35;28.58;;;0.90;99.90;;;;;;4877561;29;20067;-74
2022/12/17 13:39:19;;;;;;;55.47;29.65;;;0.90;99.90;;;;;;4848461;29;20068;-70
2022/12/17 13:41:44;;;;;;;56.38;31.00;;;0.90;99.90;;;;;;4875938;29;20040;-70
2022/12/17 13:44:19;;;;;;;51.60;27.90;;;0.90;99.90;;;;;;4877603;29;20044;-70
2022/12/17 13:46:47;;;;;;;54.13;28.77;;;1.00;99.90;;;;;;4878717;29;20045;-69
2022/12/17 13:49:19;;;;;;;58.88;30.17;;;1.00;99.90;;;;;;4894750;29;20136;-70
2022/12/17 13:51:45;;;;;;;58.70;32.13;;;1.00;99.90;;;;;;4892186;29;20045;-73
2022/12/17 13:54:15;;;;;;;52.85;28.55;;;0.90;99.90;;;;;;4894914;29;20493;-75
2022/12/17 13:56:41;;;;;;;60.90;31.27;;;0.80;99.90;;;;;;4880309;29;20048;-75
2022/12/17 13:59:20;;;;;;;64.22;33.80;;;0.80;99.90;;;;;;4869880;29;20113;-75
2022/12/17 14:01:48;;;;;;;55.63;30.13;;;0.70;99.90;;;;;;4874652;29;20091;-75
2022/12/17 14:04:28;;;;;;;57.42;29.92;;;0.70;99.90;;;;;;4867483;29;20052;-75
2022/12/17 14:07:02;;;;;;;55.10;30.80;;;0.70;99.90;;;;;;4882325;29;20041;-74
2022/12/17 14:09:39;;;;;;;56.47;29.50;;;0.60;99.90;;;;;;4896501;29;20193;-75
2022/12/17 14:12:21;;;;;;;54.42;29.20;;;0.60;99.90;;;;;;4889286;29;20060;-74
2022/12/17 14:14:53;;;;;;;54.22;29.77;;;0.50;99.90;;;;;;4898615;29;20550;-74
2022/12/17 14:17:21;;;;;;;59.85;30.60;;;0.50;99.90;;;;;;4915533;29;20115;-73
2022/12/17 14:19:58;;;;;;;61.70;32.17;;;0.50;99.90;;;;;;4898015;29;20056;-73
2022/12/17 14:22:40;;;;;;;57.17;30.13;;;0.40;99.90;;;;;;4898932;29;20434;-73
2022/12/17 14:25:14;;;;;;;56.78;29.20;;;0.40;99.90;;;;;;4881846;29;20055;-73
2022/12/17 14:27:48;;;;;;;53.72;29.30;;;0.40;99.90;;;;;;4896919;29;20405;-71
2022/12/17 14:30:35;;;;;;;57.03;28.83;;;0.30;99.90;;;;;;4897335;29;20055;-70
2022/12/17 14:33:01;;;;;;;58.30;29.35;;;0.30;99.90;;;;;;4897228;29;20040;-71
2022/12/17 14:35:30;;;;;;;58.13;30.63;;;0.10;99.90;;;;;;4896969;29;20421;-70
2022/12/17 14:37:55;;;;;;;59.25;31.02;;;0.10;99.90;;;;;;4896961;29;20115;-71
2022/12/17 14:40:24;;;;;;;55.40;29.40;;;0.10;99.90;;;;;;4897352;29;20048;-70
2022/12/17 14:42:51;;;;;;;56.20;27.83;;;0.00;99.90;;;;;;4881993;29;20430;-71
2022/12/17 14:45:21;;;;;;;54.78;28.58;;;-0.10;99.90;;;;;;4895775;29;20051;-70
2022/12/17 14:47:56;;;;;;;55.35;28.67;;;-0.10;99.90;;;;;;4897231;29;20075;-68
2022/12/17 14:50:24;;;;;;;54.97;28.10;;;-0.20;99.90;;;;;;4913541;29;20047;-69
2022/12/17 14:52:52;;;;;;;56.00;29.10;;;-0.20;99.90;;;;;;4896033;29;20490;-71
2022/12/17 14:55:51;;;;;;;58.83;30.77;;;-0.30;99.90;;;;;;4896182;29;20088;-70
2022/12/17 14:58:20;;;;;;;56.30;29.15;;;-0.30;99.90;;;;;;4897566;29;20130;-72
2022/12/17 15:00:49;;;;;;;52.28;26.63;;;-0.30;99.90;;;;;;4897925;29;20048;-71
2022/12/17 15:03:20;;;;;;;56.20;29.05;;;-0.40;99.90;;;;;;4880138;29;20048;-71
2022/12/17 15:05:54;;;;;;;52.53;26.42;;;-0.40;99.90;;;;;;4897490;29;20040;-72
2022/12/17 15:08:20;;;;;;;48.28;25.10;;;-0.50;99.90;;;;;;4897023;29;20490;-72
2022/12/17 15:10:46;;;;;;;49.55;25.35;;;-0.50;99.90;;;;;;4883320;29;20394;-72
2022/12/17 15:13:12;;;;;;;55.63;28.27;;;-0.60;99.90;;;;;;4895198;29;20054;-72
2022/12/17 15:15:37;;;;;;;57.13;28.83;;;-0.60;99.90;;;;;;4883539;29;20136;-72
2022/12/17 15:18:03;;;;;;;52.63;27.20;;;-0.70;99.90;;;;;;4883009;29;20139;-72
2022/12/17 15:20:30;;;;;;;48.42;23.88;;;-0.70;99.90;;;;;;4899020;29;20786;-72
2022/12/17 15:22:55;;;;;;;;;;;-0.70;99.90;;;;;;4897064;29;20072;-72
2022/12/17 15:25:21;;;;;;;51.78;25.85;;;-0.80;99.90;;;;;;4895291;29;19985;-72
2022/12/17 15:27:47;;;;;;;51.17;26.48;;;-0.80;99.90;;;;;;4880213;29;20111;-72
2022/12/17 15:30:16;;;;;;;51.55;26.08;;;-0.80;99.90;;;;;;4912971;29;20047;-72
2022/12/17 15:32:43;;;;;;;58.45;29.02;;;-0.90;99.90;;;;;;4880148;29;20123;-72
2022/12/17 15:35:10;;;;;;;56.38;27.45;;;-0.90;99.90;;;;;;4902756;29;20083;-71
2022/12/17 15:37:36;;;;;;;60.30;29.00;;;-0.90;99.90;;;;;;4899286;29;20048;-72
2022/12/17 15:40:03;;;;;;;56.80;28.27;;;-0.90;99.90;;;;;;4888032;29;20052;-72
2022/12/17 15:45:13;;;;;;;58.38;27.98;;;-1.00;99.90;;;;;;4900658;29;20056;-72
2022/12/17 15:47:38;;;;;;;59.92;30.60;;;-1.10;99.90;;;;;;4901874;29;20044;-72
2022/12/17 15:50:05;;;;;;;60.97;29.20;;;-1.10;99.90;;;;;;4885567;29;20044;-72
2022/12/17 15:52:31;;;;;;;59.63;27.75;;;-1.10;99.90;;;;;;4900412;29;20047;-72
2022/12/17 15:54:57;;;;;;;59.80;28.92;;;-1.20;99.90;;;;;;4899731;29;20055;-72
2022/12/17 15:57:22;;;;;;;59.72;28.70;;;-1.20;99.90;;;;;;4901502;29;20048;-73
2022/12/17 15:59:50;;;;;;;58.60;28.17;;;-1.20;99.90;;;;;;4884573;29;20561;-71
2022/12/17 16:02:16;;;;;;;59.13;28.60;;;-1.30;99.90;;;;;;4901682;29;20048;-73
2022/12/17 16:04:41;;;;;;;46.17;20.53;;;-1.30;99.90;;;;;;4885314;29;20043;-72
2022/12/17 16:07:07;;;;;;;60.88;28.00;;;-1.30;99.90;;;;;;4900323;29;20304;-72
2022/12/17 16:09:33;;;;;;;60.58;27.85;;;-1.40;99.90;;;;;;4901587;29;20343;-72
2022/12/17 16:11:59;;;;;;;61.05;28.98;;;-1.30;99.90;;;;;;4899311;29;20107;-72
2022/12/17 16:14:24;;;;;;;54.00;23.25;;;-1.40;99.90;;;;;;4869115;29;20538;-72
2022/12/17 16:16:51;;;;;;;64.15;27.50;;;-1.40;99.90;;;;;;4902255;29;20497;-72
2022/12/17 16:19:16;;;;;;;58.80;26.33;;;-1.40;99.90;;;;;;4901120;29;20055;-72
2022/12/17 16:21:42;;;;;;;52.13;24.08;;;-1.40;99.90;;;;;;4902632;29;20048;-73
2022/12/17 16:24:09;;;;;;;59.13;26.00;;;-1.50;99.90;;;;;;4899484;29;20044;-73
2022/12/17 16:26:36;;;;;;;57.72;27.27;;;-1.50;99.90;;;;;;4900280;29;20048;-72
2022/12/17 16:29:02;;;;;;;;;;;-1.60;99.90;;;;;;4900215;29;20055;-72
2022/12/17 16:31:27;;;;;;;55.03;24.65;;;-1.60;99.90;;;;;;4900451;29;19923;-72
2022/12/17 16:33:53;;;;;;;53.50;23.77;;;-1.60;99.90;;;;;;4899226;29;20039;-71
2022/12/17 16:36:20;;;;;;;50.53;23.83;;;-1.60;99.90;;;;;;4916320;29;20127;-71
2022/12/17 16:38:52;;;;;;;52.03;23.17;;;-1.70;99.90;;;;;;4916536;29;20091;-71
2022/12/17 16:41:20;;;;;;;51.70;21.85;;;-1.70;99.90;;;;;;4871332;29;20142;-71
2022/12/17 16:43:46;;;;;;;51.95;23.52;;;-1.70;99.90;;;;;;4905326;29;20048;-71
2022/12/17 16:46:37;;;;;;;61.40;24.83;;;-1.70;99.90;;;;;;4896873;29;20056;-71
2022/12/17 16:49:08;;;;;;;51.72;23.27;;;-1.70;99.90;;;;;;4892857;29;20060;-71
2022/12/17 16:51:34;;;;;;;56.70;24.13;;;-1.80;99.90;;;;;;4901770;29;20134;-71
2022/12/17 16:54:08;;;;;;;53.92;25.63;;;-1.80;99.90;;;;;;4914937;29;20132;-71
2022/12/17 16:56:34;;;;;;;50.13;21.75;;;-1.80;99.90;;;;;;4899302;29;20028;-71
2022/12/17 16:59:03;;;;;;;55.65;24.25;;;-1.80;99.90;;;;;;4896626;29;20055;-71
2022/12/17 17:01:29;;;;;;;57.10;23.85;;;-1.80;99.90;;;;;;4899524;29;20051;-71
2022/12/17 17:03:55;;;;;;;58.70;25.67;;;-1.80;99.90;;;;;;4896669;29;21059;-72
2022/12/17 17:06:22;;;;;;;66.35;27.83;;;-1.80;99.90;;;;;;4900922;29;20454;-73
2022/12/17 17:08:48;;;;;;;60.30;24.92;;;-1.80;99.90;;;;;;4904710;29;20056;-72
2022/12/17 17:11:16;;;;;;;;;;;-1.90;99.90;;;;;;4899651;29;20140;-72
2022/12/17 17:13:42;;;;;;;59.10;24.45;;;-1.80;99.90;;;;;;4896705;29;19926;-72
2022/12/17 17:16:09;;;;;;;52.00;22.25;;;-1.80;99.90;;;;;;4914838;29;20128;-72
2022/12/17 17:18:36;;;;;;;57.85;24.13;;;-1.90;99.90;;;;;;4899975;29;20080;-73
2022/12/17 17:21:12;;;;;;;62.47;25.90;;;-1.90;99.90;;;;;;4897330;29;20112;-72
2022/12/17 17:23:38;;;;;;;58.80;24.50;;;-1.90;99.90;;;;;;4895763;29;20040;-72
2022/12/17 17:26:04;;;;;;;63.85;26.27;;;-1.90;99.90;;;;;;4881956;29;20584;-72
2022/12/17 17:28:30;;;;;;;66.93;28.02;;;-1.90;99.90;;;;;;4882707;29;20394;-73
2022/12/17 17:31:05;;;;;;;60.20;25.08;;;-1.90;99.90;;;;;;4884197;29;20470;-73
2022/12/17 17:33:33;;;;;;;57.65;23.80;;;-1.90;99.90;;;;;;4897011;29;20465;-72
2022/12/17 17:36:06;;;;;;;57.88;23.70;;;-2.00;99.90;;;;;;4896053;29;20036;-72
2022/12/17 17:38:34;;;;;;;53.25;22.30;;;-2.00;99.90;;;;;;4892950;29;20120;-70
2022/12/17 17:41:00;;;;;;;52.38;22.45;;;-2.00;99.90;;;;;;4895713;29;20047;-70
2022/12/17 17:43:26;;;;;;;60.53;25.63;;;-2.10;99.90;;;;;;4868096;29;20040;-72
2022/12/17 17:45:52;;;;;;;66.38;26.42;;;-2.00;99.90;;;;;;4882046;29;20102;-72
2022/12/17 17:48:18;;;;;;;60.13;25.15;;;-2.00;99.90;;;;;;4911191;29;20044;-74
2022/12/17 17:50:55;;;;;;;57.80;24.27;;;-2.10;99.90;;;;;;4895156;29;20478;-72
2022/12/17 17:53:20;;;;;;;62.13;25.25;;;-2.10;99.90;;;;;;4882410;29;20174;-74
2022/12/17 17:55:46;;;;;;;49.88;19.80;;;-2.10;99.90;;;;;;4881781;29;20175;-72
2022/12/17 17:58:13;;;;;;;59.35;24.55;;;-2.10;99.90;;;;;;4883066;29;20079;-72
2022/12/17 18:00:39;;;;;;;56.28;22.70;;;-2.00;99.90;;;;;;4880796;29;20048;-72
2022/12/17 18:03:04;;;;;;;58.35;24.35;;;-2.00;99.90;;;;;;4894879;29;20051;-72
2022/12/17 18:05:30;;;;;;;59.40;23.50;;;-2.00;99.90;;;;;;4882390;29;20114;-72
2022/12/17 18:07:56;;;;;;;54.22;22.40;;;-2.00;99.90;;;;;;4878903;29;20352;-72
2022/12/17 18:10:21;;;;;;;59.33;23.77;;;-2.00;99.90;;;;;;4898644;29;20089;-72
2022/12/17 18:15:31;;;;;;;64.43;25.23;;;-2.00;99.90;;;;;;4882220;29;20044;-73
2022/12/17 18:17:56;;;;;;;63.60;25.13;;;-2.00;99.90;;;;;;4898936;29;20036;-73
2022/12/17 18:20:22;;;;;;;58.27;23.37;;;-1.90;99.90;;;;;;4882659;29;20052;-73
2022/12/17 18:22:49;;;;;;;63.00;25.50;;;-2.00;99.90;;;;;;4883504;29;20292;-73
2022/12/17 18:25:16;;;;;;;65.25;26.25;;;-2.00;99.90;;;;;;4893546;29;20880;-75
2022/12/17 18:27:42;;;;;;;58.10;24.42;;;-2.00;99.90;;;;;;4879666;29;20091;-74
2022/12/17 18:30:08;;;;;;;58.33;23.02;;;-2.00;99.90;;;;;;4890180;29;20056;-74
2022/12/17 18:32:34;;;;;;;64.13;25.02;;;-2.00;99.90;;;;;;4896842;29;20108;-74
2022/12/17 18:35:00;;;;;;;58.72;23.20;;;-2.00;99.90;;;;;;4898795;29;20190;-75
2022/12/17 18:37:25;;;;;;;53.37;21.57;;;-2.10;99.90;;;;;;4882823;29;20410;-75
2022/12/17 18:39:51;;;;;;;56.30;22.53;;;-2.00;99.90;;;;;;4866983;29;20382;-75
2022/12/17 18:45:01;;;;;;;58.17;22.92;;;-2.10;99.90;;;;;;4915861;29;20280;-75
2022/12/17 18:47:27;;;;;;;54.90;23.60;;;-2.10;99.90;;;;;;4898898;29;20044;-75
2022/12/17 18:49:52;;;;;;;44.50;18.25;;;-2.10;99.90;;;;;;4868349;29;20482;-75
2022/12/17 18:52:18;;;;;;;56.10;22.85;;;-2.10;99.90;;;;;;4897476;29;20036;-76
2022/12/17 18:54:44;;;;;;;61.25;24.20;;;-2.10;99.90;;;;;;4898846;29;20861;-75
2022/12/17 18:57:10;;;;;;;48.85;19.35;;;-2.20;99.90;;;;;;4883419;29;20047;-75
2022/12/17 18:59:36;;;;;;;60.35;23.05;;;-2.20;99.90;;;;;;4898637;29;20052;-75
2022/12/17 19:02:02;;;;;;;56.28;22.60;;;-2.30;99.90;;;;;;4898948;29;20262;-75
2022/12/17 19:04:27;;;;;;;55.78;22.60;;;-2.30;99.90;;;;;;4900085;29;20135;-75
2022/12/17 19:06:53;;;;;;;58.22;23.30;;;-2.20;99.90;;;;;;4881043;29;20044;-75
2022/12/17 19:09:28;;;;;;;56.30;23.00;;;-2.30;99.90;;;;;;4897761;29;20048;-75
2022/12/17 19:11:55;;;;;;;59.40;22.98;;;-2.30;99.90;;;;;;4896970;29;20052;-74
2022/12/17 19:14:21;;;;;;;55.95;22.67;;;-2.30;99.90;;;;;;4898479;29;20079;-75
2022/12/17 19:16:48;;;;;;;57.92;23.40;;;-2.30;99.90;;;;;;4882939;29;20052;-75
2022/12/17 19:19:14;;;;;;;57.03;23.33;;;-2.30;99.90;;;;;;4897829;29;20048;-74
2022/12/17 19:21:40;;;;;;;61.67;24.38;;;-2.30;99.90;;;;;;4882818;29;20055;-74
2022/12/17 19:24:07;;;;;;;55.00;22.40;;;-2.30;99.90;;;;;;4865258;29;20057;-74
2022/12/17 19:26:33;;;;;;;51.38;20.88;;;-2.30;99.90;;;;;;4866562;29;20048;-75
2022/12/17 19:29:00;;;;;;;52.80;21.17;;;-2.30;99.90;;;;;;4899206;29;20048;-75
2022/12/17 19:31:29;;;;;;;60.13;23.98;;;-2.20;99.90;;;;;;4897170;29;20044;-73
2022/12/17 19:34:03;;;;;;;62.75;24.90;;;-2.20;99.90;;;;;;4879462;29;20048;-73
2022/12/17 19:36:31;;;;;;;67.82;26.48;;;-2.30;99.90;;;;;;4890967;29;20100;-73
2022/12/17 19:39:02;;;;;;;65.72;25.55;;;-2.20;99.90;;;;;;4881390;29;20048;-73
2022/12/17 19:41:30;;;;;;;65.50;25.85;;;-2.20;99.90;;;;;;4896899;29;20056;-73
2022/12/17 19:44:04;;;;;;;63.80;26.27;;;-2.20;99.90;;;;;;4897125;29;20067;-73
2022/12/17 19:46:32;;;;;;;59.45;23.30;;;-2.30;99.90;;;;;;4882616;29;20084;-73
2022/12/17 19:48:58;;;;;;;58.97;24.52;;;-2.30;99.90;;;;;;4896187;29;20051;-73
2022/12/17 19:51:26;;;;;;;65.15;25.35;;;-2.30;99.90;;;;;;4897358;29;20044;-73
2022/12/17 19:53:53;;;;;;;61.60;24.08;;;-2.20;99.90;;;;;;4897101;29;20044;-73
2022/12/17 19:56:22;;;;;;;52.17;21.88;;;-2.30;99.90;;;;;;4897627;29;20393;-73
2022/12/17 19:58:51;;;;;;;58.25;23.55;;;-2.30;99.90;;;;;;4894136;29;20135;-73
2022/12/17 20:01:29;;;;;;;53.17;22.08;;;-2.30;99.90;;;;;;4897218;29;20513;-73
2022/12/17 20:03:55;;;;;;;50.17;19.98;;;-2.30;99.90;;;;;;4897498;29;20040;-72
2022/12/17 20:06:24;;;;;;;50.17;20.95;;;-2.30;99.90;;;;;;4895519;29;20044;-72
2022/12/17 20:08:51;;;;;;;59.10;24.88;;;-2.30;99.90;;;;;;4881218;29;20055;-72
2022/12/17 20:11:33;;;;;;;61.75;28.05;;;-2.40;99.90;;;;;;4896641;29;20083;-72
2022/12/17 20:14:13;;;;;;;68.47;28.15;;;-2.30;99.90;;;;;;4881211;29;20067;-72
2022/12/17 20:16:48;;;;;;;59.05;24.65;;;-2.30;99.90;;;;;;4881799;29;20040;-72
2022/12/17 20:19:17;;;;;;;57.00;25.25;;;-2.30;99.90;;;;;;4882462;29;20131;-73
2022/12/17 20:21:42;;;;;;;58.55;25.95;;;-2.30;99.90;;;;;;4901705;29;20052;-74
2022/12/17 20:24:09;;;;;;;66.38;28.60;;;-2.40;99.90;;;;;;4901615;29;20055;-74
2022/12/17 20:26:35;;;;;;;59.30;28.70;;;-2.40;99.90;;;;;;4901498;29;20064;-74
2022/12/17 20:29:02;;;;;;;58.03;26.42;;;-2.40;99.90;;;;;;4900972;29;20498;-74
2022/12/17 20:31:27;;;;;;;55.88;26.08;;;-2.40;99.90;;;;;;4884932;29;20043;-74
2022/12/17 20:33:53;;;;;;;54.00;24.67;;;-2.50;99.90;;;;;;4901623;29;20042;-74
2022/12/17 20:36:20;;;;;;;57.08;26.80;;;-2.50;99.90;;;;;;4885414;29;20538;-74
2022/12/17 20:38:46;;;;;;;54.65;25.38;;;-2.50;99.90;;;;;;4869892;29;20190;-74
2022/12/17 20:41:15;;;;;;;58.42;26.58;;;-2.60;99.90;;;;;;4901746;29;20135;-74
2022/12/17 20:43:41;;;;;;;56.13;26.92;;;-2.60;99.90;;;;;;4901307;29;20079;-74
2022/12/17 20:46:08;;;;;;;58.83;27.10;;;-2.60;99.90;;;;;;4885973;29;20044;-74
2022/12/17 20:48:38;;;;;;;58.60;28.20;;;-2.60;99.90;;;;;;4916961;29;20040;-74
2022/12/17 20:51:11;;;;;;;56.08;26.05;;;-2.70;99.90;;;;;;4901248;29;20100;-74
2022/12/17 20:53:38;;;;;;;60.72;28.40;;;-2.70;99.90;;;;;;4880218;29;20051;-74
2022/12/17 20:56:09;;;;;;;57.35;26.27;;;-2.70;99.90;;;;;;4870321;29;20051;-74
2022/12/17 20:58:35;;;;;;;54.00;26.92;;;-2.70;99.90;;;;;;4901097;29;20044;-74
2022/12/17 21:01:06;;;;;;;54.20;26.40;;;-2.70;99.90;;;;;;4918794;29;20127;-74
2022/12/17 21:03:32;;;;;;;57.53;27.20;;;-2.70;99.90;;;;;;4900787;29;20929;-73
2022/12/17 21:06:10;;;;;;;54.50;26.08;;;-2.70;99.90;;;;;;4883885;29;20494;-74
2022/12/17 21:08:37;;;;;;;61.10;27.85;;;-2.70;99.90;;;;;;4899758;29;20044;-74
2022/12/17 21:11:03;;;;;;;63.53;30.63;;;-2.70;99.90;;;;;;4884702;29;20056;-74
2022/12/17 21:13:29;;;;;;;64.55;29.92;;;-2.70;99.90;;;;;;4885381;29;20048;-74
2022/12/17 21:15:58;;;;;;;69.82;32.58;;;-2.70;99.90;;;;;;4897776;29;20115;-73
2022/12/17 21:18:24;;;;;;;68.10;31.50;;;-2.70;99.90;;;;;;4881865;29;20048;-74
2022/12/17 21:20:57;;;;;;;;;;;-2.70;99.90;;;;;;4901594;29;20157;-73
2022/12/17 21:23:23;;;;;;;68.65;29.60;;;-2.60;99.90;;;;;;4884903;29;19919;-73
2022/12/17 21:25:59;;;;;;;64.22;30.38;;;-2.60;99.90;;;;;;4885027;29;20079;-73
2022/12/17 21:28:25;;;;;;;63.67;29.50;;;-2.60;99.90;;;;;;4877763;29;20512;-73
2022/12/17 21:30:51;;;;;;;68.00;31.92;;;-2.70;99.90;;;;;;4899366;29;20044;-74
2022/12/17 21:33:17;;;;;;;70.05;31.83;;;-2.70;99.90;;;;;;4901169;29;20055;-73
2022/12/17 21:35:42;;;;;;;67.80;30.83;;;-2.70;99.90;;;;;;4879111;29;20050;-73
2022/12/17 21:38:08;;;;;;;69.47;32.60;;;-2.60;99.90;;;;;;4885259;29;20406;-73
2022/12/17 21:40:35;;;;;;;65.45;30.23;;;-2.70;99.90;;;;;;4899255;29;20052;-73
2022/12/17 21:43:00;;;;;;;64.97;30.67;;;-2.70;99.90;;;;;;4899194;29;20139;-73
2022/12/17 21:45:27;;;;;;;65.88;30.33;;;-2.60;99.90;;;;;;4883632;29;20497;-74
2022/12/17 21:47:52;;;;;;;65.93;30.38;;;-2.60;99.90;;;;;;4881223;29;20136;-74
2022/12/17 21:50:18;;;;;;;60.25;28.80;;;-2.70;99.90;;;;;;4876932;29;20052;-74
2022/12/17 21:52:44;;;;;;;50.35;24.73;;;-2.70;99.90;;;;;;4901195;29;20059;-74
2022/12/17 21:55:09;;;;;;;59.03;28.17;;;-2.60;99.90;;;;;;4890215;29;20043;-74
2022/12/17 21:57:35;;;;;;;61.00;29.83;;;-2.70;99.90;;;;;;4898463;29;20451;-74
2022/12/17 22:00:01;;;;;;;73.72;32.17;;;-2.70;99.90;;;;;;4888715;29;20051;-74
2022/12/17 22:02:27;;;;;;;63.58;28.42;;;-2.80;99.90;;;;;;4917743;29;20532;-73
2022/12/17 22:04:52;;;;;;;61.97;28.15;;;-2.70;99.90;;;;;;4899302;29;20048;-74
2022/12/17 22:07:18;;;;;;;56.95;26.23;;;-2.80;99.90;;;;;;4900362;29;20051;-73
2022/12/17 22:09:44;;;;;;;45.15;20.95;;;-2.80;99.90;;;;;;4884211;29;20040;-74
2022/12/17 22:14:53;;;;;;;65.03;29.02;;;-2.70;99.90;;;;;;4893803;29;20082;-74
2022/12/17 22:17:19;;;;;;;59.60;26.77;;;-2.80;99.90;;;;;;4899253;29;20462;-73
2022/12/17 22:19:45;;;;;;;60.27;27.10;;;-2.80;99.90;;;;;;4866587;29;20048;-73
2022/12/17 22:22:10;;;;;;;54.00;25.10;;;-2.80;99.90;;;;;;4880253;29;20666;-73
2022/12/17 22:24:36;;;;;;;53.20;24.20;;;-2.80;99.90;;;;;;4873978;29;20052;-72
2022/12/17 22:27:02;;;;;;;64.13;27.92;;;-2.70;99.90;;;;;;4895880;29;20044;-72
2022/12/17 22:34:57;;;;;;;60.83;26.23;;;-2.90;99.90;;;;;;4894172;29;20052;-72
2022/12/17 22:37:23;;;;;;;62.53;25.95;;;-2.90;99.90;;;;;;4880189;29;20100;-71
2022/12/17 22:39:48;;;;;;;45.60;20.30;;;-2.80;99.90;;;;;;4881018;29;20044;-72
2022/12/17 22:44:58;;;;;;;63.55;29.48;;;-2.80;99.90;;;;;;4895159;29;20531;-71
2022/12/17 22:47:24;;;;;;;54.88;23.13;;;-2.80;99.90;;;;;;4895718;29;20060;-71
2022/12/17 22:49:49;;;;;;;62.03;28.15;;;-3.00;99.90;;;;;;4895101;29;20401;-71
2022/12/17 22:52:15;;;;;;;61.00;27.45;;;-2.90;99.90;;;;;;4894025;29;20249;-71
2022/12/17 22:54:41;;;;;;;60.13;26.30;;;-2.90;99.90;;;;;;4895861;29;20055;-71
2022/12/17 22:57:06;;;;;;;60.55;27.23;;;-2.90;99.90;;;;;;4896112;29;20056;-71
2022/12/17 22:59:32;;;;;;;69.95;29.92;;;-2.90;99.90;;;;;;4896801;29;20044;-71
2022/12/17 23:01:58;;;;;;;73.03;30.52;;;-2.90;99.90;;;;;;4893974;29;20127;-70
2022/12/17 23:04:23;;;;;;;57.97;25.70;;;-3.00;99.90;;;;;;4878966;29;20047;-71
2022/12/17 23:06:49;;;;;;;42.83;19.17;;;-2.90;99.90;;;;;;4893086;29;20040;-71
2022/12/17 23:09:18;;;;;;;62.28;26.85;;;-2.90;99.90;;;;;;4892770;29;20052;-71
2022/12/17 23:11:44;;;;;;;62.55;25.83;;;-3.00;99.90;;;;;;4891577;29;20052;-71
2022/12/17 23:14:10;;;;;;;62.25;25.45;;;-2.90;99.90;;;;;;4871860;29;20051;-71
2022/12/17 23:16:39;;;;;;;63.45;26.75;;;-2.90;99.90;;;;;;4911595;29;20047;-71
2022/12/17 23:19:06;;;;;;;62.45;26.40;;;-2.90;99.90;;;;;;4882864;29;20052;-71
2022/12/17 23:21:33;;;;;;;62.55;27.00;;;-2.90;99.90;;;;;;4897757;29;20522;-71
2022/12/17 23:23:58;;;;;;;47.95;21.90;;;-3.00;99.90;;;;;;4898272;29;20044;-71
2022/12/17 23:26:27;;;;;;;49.90;20.00;;;-2.90;99.90;;;;;;4882325;29;20055;-71
2022/12/17 23:28:57;;;;;;;65.57;26.23;;;-3.00;99.90;;;;;;4896629;29;20044;-71
2022/12/17 23:31:24;;;;;;;71.43;28.45;;;-2.90;99.90;;;;;;4895976;29;20048;-70
2022/12/17 23:33:49;;;;;;;74.93;29.70;;;-3.00;99.90;;;;;;4897450;29;20098;-70
2022/12/17 23:36:18;;;;;;;65.38;28.02;;;-3.00;99.90;;;;;;4881935;29;20052;-70
2022/12/17 23:38:45;;;;;;;74.85;29.38;;;-3.00;99.90;;;;;;4898053;29;20052;-70
2022/12/17 23:41:13;;;;;;;78.75;31.75;;;-2.90;99.90;;;;;;4892674;29;20053;-70
2022/12/17 23:43:39;;;;;;;65.13;28.80;;;-3.00;99.90;;;;;;4889984;29;20054;-71
2022/12/17 23:46:07;;;;;;;64.53;26.85;;;-2.90;99.90;;;;;;4890991;29;20048;-71
2022/12/17 23:48:35;;;;;;;70.13;28.00;;;-2.90;99.90;;;;;;4898132;29;20052;-70
2022/12/17 23:51:02;;;;;;;73.63;29.50;;;-3.00;99.90;;;;;;4897527;29;20048;-70
2022/12/17 23:53:29;;;;;;;66.63;26.70;;;-3.00;99.90;;;;;;4882545;29;20043;-70
2022/12/17 23:55:55;;;;;;;68.88;27.73;;;-3.00;99.90;;;;;;4900385;29;20044;-70
2022/12/17 23:58:21;;;;;;;68.50;25.92;;;-3.10;99.90;;;;;;4869816;29;20039;-70
